createdAt,value
2019-04-01T00:00:17.797Z,101511.77
2019-04-01T00:02:46.376Z,101507.52
2019-04-01T00:05:14.977Z,101502.82
2019-04-01T00:07:43.653Z,101512.62
2019-04-01T00:10:12.332Z,101507.84
2019-04-01T00:12:41.086Z,101509.73
2019-04-01T00:15:09.710Z,101508.95
2019-04-01T00:17:38.316Z,101505.13
2019-04-01T00:20:07.939Z,101511.88
2019-04-01T00:22:36.536Z,101512.44
2019-04-01T00:25:05.308Z,101503.41
2019-04-01T00:27:33.920Z,101501.67
2019-04-01T00:30:02.629Z,101497.34
2019-04-01T00:32:31.173Z,101503.61
2019-04-01T00:34:59.713Z,101498.84
2019-04-01T00:37:28.509Z,101501.14
2019-04-01T00:39:57.210Z,101507.34
2019-04-01T00:42:27.465Z,101506.98
2019-04-01T00:44:56.239Z,101498.24
2019-04-01T00:47:24.889Z,101497.92
2019-04-01T00:49:53.469Z,101488.76
2019-04-01T00:52:22.337Z,101486.18
2019-04-01T00:54:50.978Z,101487.53
2019-04-01T00:57:19.577Z,101481.54
2019-04-01T00:59:48.530Z,101492.48
2019-04-01T01:02:17.112Z,101481.61
2019-04-01T01:04:45.770Z,101476.34
2019-04-01T01:07:14.406Z,101479.52
2019-04-01T01:09:43.026Z,101484.80
2019-04-01T01:12:11.572Z,101480.03
2019-04-01T01:14:40.215Z,101479.19
2019-04-01T01:17:08.789Z,101483.23
2019-04-01T01:19:37.437Z,101482.42
2019-04-01T01:22:06.041Z,101475.45
2019-04-01T01:24:34.690Z,101474.58
2019-04-01T01:27:03.377Z,101471.97
2019-04-01T01:29:31.998Z,101470.30
2019-04-01T01:32:00.628Z,101469.94
2019-04-01T01:34:29.640Z,101465.16
2019-04-01T01:36:58.445Z,101460.33
2019-04-01T01:39:27.072Z,101467.03
2019-04-01T01:41:55.644Z,101461.39
2019-04-01T01:44:24.219Z,101456.17
2019-04-01T01:46:52.848Z,101455.81
2019-04-01T01:49:21.620Z,101446.14
2019-04-01T01:51:50.194Z,101446.66
2019-04-01T01:54:19.140Z,101447.14
2019-04-01T01:56:47.719Z,101443.69
2019-04-01T01:59:16.655Z,101442.36
2019-04-01T02:01:45.266Z,101440.23
2019-04-01T02:04:13.838Z,101438.11
2019-04-01T02:06:42.706Z,101438.59
2019-04-01T02:09:11.290Z,101431.17
2019-04-01T02:11:39.855Z,101436.11
2019-04-01T02:14:08.357Z,101433.91
2019-04-01T02:16:37.156Z,101427.02
2019-04-01T02:19:05.756Z,101428.78
2019-04-01T02:21:35.048Z,101425.78
2019-04-01T02:24:03.818Z,101426.27
2019-04-01T02:26:32.362Z,101418.47
2019-04-01T02:29:00.935Z,101425.17
2019-04-01T02:31:29.543Z,101422.55
2019-04-01T02:33:58.116Z,101419.55
2019-04-01T02:36:26.693Z,101419.13
2019-04-01T02:38:55.276Z,101418.84
2019-04-01T02:41:23.880Z,101419.38
2019-04-01T02:43:52.991Z,101417.25
2019-04-01T02:46:21.647Z,101421.28
2019-04-01T02:48:50.227Z,101425.73
2019-04-01T02:51:18.971Z,101423.17
2019-04-01T02:53:47.610Z,101418.86
2019-04-01T02:56:16.200Z,101423.33
2019-04-01T02:58:44.772Z,101423.39
2019-04-01T03:01:13.348Z,101415.08
2019-04-01T03:03:42.261Z,101408.95
2019-04-01T03:06:10.827Z,101410.72
2019-04-01T03:08:39.400Z,101408.53
2019-04-01T03:11:10.716Z,101405.47
2019-04-01T03:13:38.689Z,101402.47
2019-04-01T03:16:07.531Z,101402.53
2019-04-01T03:18:37.550Z,101399.89
2019-04-01T03:21:06.123Z,101405.69
2019-04-01T03:23:34.769Z,101395.50
2019-04-01T03:26:03.814Z,101394.24
2019-04-01T03:28:32.501Z,101396.92
2019-04-01T03:31:01.082Z,101397.00
2019-04-01T03:33:29.713Z,101397.52
2019-04-01T03:35:58.309Z,101399.77
2019-04-01T03:38:28.123Z,101396.70
2019-04-01T03:40:57.862Z,101393.26
2019-04-01T03:43:26.503Z,101392.41
2019-04-01T03:45:55.107Z,101391.61
2019-04-01T03:48:23.809Z,101388.55
2019-04-01T03:50:52.386Z,101393.83
2019-04-01T03:53:21.462Z,101394.34
2019-04-01T03:55:50.045Z,101395.36
2019-04-01T03:58:18.614Z,101394.99
2019-04-01T04:00:47.535Z,101387.97
2019-04-01T04:03:16.241Z,101396.34
2019-04-01T04:05:44.838Z,101392.89
2019-04-01T04:08:13.395Z,101393.84
2019-04-01T04:10:41.988Z,101397.00
2019-04-01T04:13:10.662Z,101393.06
2019-04-01T04:15:39.218Z,101394.84
2019-04-01T04:18:07.800Z,101397.54
2019-04-01T04:20:36.479Z,101389.70
2019-04-01T04:23:05.045Z,101390.59
2019-04-01T04:25:34.130Z,101389.34
2019-04-01T04:28:02.776Z,101388.92
2019-04-01T04:30:31.404Z,101384.59
2019-04-01T04:33:00.042Z,101381.14
2019-04-01T04:35:28.713Z,101387.41
2019-04-01T04:37:57.317Z,101384.85
2019-04-01T04:40:25.908Z,101384.09
2019-04-01T04:42:54.861Z,101378.84
2019-04-01T04:45:23.428Z,101375.84
2019-04-01T04:47:52.014Z,101376.30
2019-04-01T04:50:20.891Z,101376.34
2019-04-01T04:52:49.488Z,101373.34
2019-04-01T04:55:18.068Z,101371.60
2019-04-01T04:57:46.733Z,101377.33
2019-04-01T05:00:15.701Z,101374.69
2019-04-01T05:02:44.923Z,101375.98
2019-04-01T05:05:13.581Z,101380.84
2019-04-01T05:07:42.150Z,101376.01
2019-04-01T05:10:10.935Z,101373.43
2019-04-01T05:12:39.823Z,101375.64
2019-04-01T05:15:08.652Z,101367.73
2019-04-01T05:17:38.160Z,101378.28
2019-04-01T05:20:06.869Z,101381.43
2019-04-01T05:22:36.248Z,101369.55
2019-04-01T05:25:05.681Z,101377.41
2019-04-01T05:27:37.489Z,101380.48
2019-04-01T05:30:06.875Z,101378.63
2019-04-01T05:32:37.617Z,101379.86
2019-04-01T05:35:07.234Z,101382.86
2019-04-01T05:37:36.218Z,101373.55
2019-04-01T05:40:06.625Z,101376.55
2019-04-01T05:42:36.139Z,101379.97
2019-04-01T05:45:06.813Z,101385.13
2019-04-01T05:47:49.315Z,101390.75
2019-04-01T05:50:17.928Z,101392.37
2019-04-01T05:52:46.513Z,101393.16
2019-04-01T05:55:15.630Z,101398.32
2019-04-01T05:57:44.219Z,101391.99
2019-04-01T06:00:15.338Z,101397.06
2019-04-01T06:02:43.920Z,101389.86
2019-04-01T06:05:12.702Z,101386.17
2019-04-01T06:07:41.270Z,101389.08
2019-04-01T06:10:09.887Z,101391.54
2019-04-01T06:12:38.882Z,101385.66
2019-04-01T06:15:07.749Z,101386.34
2019-04-01T06:17:36.518Z,101380.41
2019-04-01T06:20:06.487Z,101377.97
2019-04-01T06:22:35.372Z,101380.77
2019-04-01T06:25:05.052Z,101376.55
2019-04-01T06:27:33.836Z,101379.80
2019-04-01T06:30:02.684Z,101381.95
2019-04-01T06:32:31.558Z,101383.58
2019-04-01T06:35:00.242Z,101378.23
2019-04-01T06:37:29.006Z,101369.80
2019-04-01T06:39:57.583Z,101371.00
2019-04-01T06:42:26.273Z,101371.98
2019-04-01T06:44:55.125Z,101362.86
2019-04-01T06:47:23.767Z,101366.05
2019-04-01T06:49:52.335Z,101369.61
2019-04-01T06:52:21.208Z,101374.80
2019-04-01T06:54:49.787Z,101372.77
2019-04-01T06:57:18.481Z,101372.83
2019-04-01T06:59:47.770Z,101369.02
2019-04-01T07:02:16.349Z,101371.02
2019-04-01T07:04:44.991Z,101364.13
2019-04-01T07:07:19.297Z,101367.09
2019-04-01T07:09:44.108Z,101360.77
2019-04-01T07:12:12.721Z,101364.44
2019-04-01T07:14:42.048Z,101365.05
2019-04-01T07:17:11.126Z,101369.51
2019-04-01T07:19:40.033Z,101366.64
2019-04-01T07:22:09.394Z,101371.91
2019-04-01T07:24:38.099Z,101360.81
2019-04-01T07:27:08.261Z,101360.02
2019-04-01T07:29:37.452Z,101356.97
2019-04-01T07:32:06.738Z,101364.49
2019-04-01T07:34:35.334Z,101357.28
2019-04-01T07:37:05.566Z,101354.42
2019-04-01T07:39:34.286Z,101363.30
2019-04-01T07:42:03.470Z,101350.16
2019-04-01T07:44:32.247Z,101349.10
2019-04-01T07:47:00.855Z,101345.71
2019-04-01T07:49:29.547Z,101348.61
2019-04-01T07:51:58.184Z,101341.95
2019-04-01T07:54:26.773Z,101348.55
2019-04-01T07:56:56.012Z,101336.49
2019-04-01T07:59:24.807Z,101335.26
2019-04-01T08:01:53.579Z,101338.55
2019-04-01T08:04:23.206Z,101329.67
2019-04-01T08:06:51.794Z,101323.50
2019-04-01T08:09:20.457Z,101327.71
2019-04-01T08:11:50.572Z,101323.52
2019-04-01T08:14:19.665Z,101324.81
2019-04-01T08:16:50.236Z,101319.59
2019-04-01T08:19:20.168Z,101318.13
2019-04-01T08:21:52.348Z,101316.27
2019-04-01T08:24:19.805Z,101315.82
2019-04-01T08:26:48.407Z,101322.36
2019-04-01T08:29:29.512Z,101321.63
2019-04-01T08:31:47.492Z,101322.98
2019-04-01T08:34:17.915Z,101318.97
2019-04-01T08:36:47.305Z,101322.30
2019-04-01T08:39:16.072Z,101312.14
2019-04-01T08:41:44.660Z,101316.63
2019-04-01T08:44:13.481Z,101316.63
2019-04-01T08:46:42.167Z,101319.95
2019-04-01T08:49:10.747Z,101318.27
2019-04-01T08:51:40.035Z,101317.78
2019-04-01T08:54:08.634Z,101308.69
2019-04-01T08:56:38.346Z,101314.39
2019-04-01T08:59:07.260Z,101313.96
2019-04-01T09:01:35.841Z,101314.09
2019-04-01T09:04:04.440Z,101298.51
2019-04-01T09:06:33.050Z,101304.17
2019-04-01T09:09:02.440Z,101299.86
2019-04-01T09:11:31.317Z,101294.02
2019-04-01T09:14:00.307Z,101291.27
2019-04-01T09:16:29.483Z,101286.84
2019-04-01T09:18:58.066Z,101279.55
2019-04-01T09:21:26.723Z,101271.53
2019-04-01T09:23:55.307Z,101275.47
2019-04-01T09:26:23.930Z,101268.77
2019-04-01T09:28:52.508Z,101272.16
2019-04-01T09:31:21.083Z,101269.42
2019-04-01T09:33:49.674Z,101265.44
2019-04-01T09:36:18.245Z,101267.25
2019-04-01T09:38:46.851Z,101261.19
2019-04-01T09:41:15.434Z,101261.19
2019-04-01T09:43:44.011Z,101255.75
2019-04-01T09:46:12.599Z,101249.95
2019-04-01T09:48:42.130Z,101246.38
2019-04-01T09:51:10.906Z,101246.09
2019-04-01T09:53:39.488Z,101249.00
2019-04-01T09:56:08.094Z,101246.64
2019-04-01T09:58:36.672Z,101242.44
2019-04-01T10:01:05.267Z,101249.58
2019-04-01T10:03:33.934Z,101241.56
2019-04-01T10:06:02.512Z,101230.84
2019-04-01T10:08:42.203Z,101235.73
2019-04-01T10:11:01.403Z,101229.90
2019-04-01T10:13:29.979Z,101228.59
2019-04-01T10:15:58.792Z,101221.02
2019-04-01T10:18:27.365Z,101219.34
2019-04-01T10:20:55.944Z,101216.31
2019-04-01T10:23:24.602Z,101208.20
2019-04-01T10:25:53.182Z,101201.69
2019-04-01T10:28:21.762Z,101203.36
2019-04-01T10:30:50.351Z,101214.58
2019-04-01T10:33:19.007Z,101211.56
2019-04-01T10:35:47.588Z,101201.69
2019-04-01T10:38:16.185Z,101189.65
2019-04-01T10:40:44.762Z,101201.95
2019-04-01T10:43:13.376Z,101192.92
2019-04-01T10:45:41.964Z,101176.43
2019-04-01T10:48:10.581Z,101183.23
2019-04-01T10:50:39.222Z,101178.59
2019-04-01T10:53:07.840Z,101174.88
2019-04-01T10:55:36.379Z,101173.66
2019-04-01T10:58:05.142Z,101172.30
2019-04-01T11:00:33.715Z,101173.62
2019-04-01T11:03:05.892Z,101168.42
2019-04-01T11:05:32.732Z,101160.05
2019-04-01T11:08:01.384Z,101161.35
2019-04-01T11:10:30.206Z,101152.72
2019-04-01T11:12:59.466Z,101150.23
2019-04-01T11:15:28.075Z,101148.36
2019-04-01T11:17:56.656Z,101139.98
2019-04-01T11:20:25.233Z,101136.50
2019-04-01T11:22:53.810Z,101133.78
2019-04-01T11:25:22.415Z,101123.83
2019-04-01T11:27:51.040Z,101132.03
2019-04-01T11:30:20.512Z,101120.65
2019-04-01T11:32:49.206Z,101120.48
2019-04-01T11:35:17.838Z,101117.76
2019-04-01T11:37:46.408Z,101116.91
2019-04-01T11:40:15.169Z,101107.55
2019-04-01T11:42:43.858Z,101103.98
2019-04-01T11:45:12.676Z,101102.75
2019-04-01T11:47:41.254Z,101103.76
2019-04-01T11:50:09.976Z,101117.02
2019-04-01T11:52:38.617Z,101094.59
2019-04-01T11:55:08.922Z,101100.69
2019-04-01T11:57:37.988Z,101097.64
2019-04-01T12:00:12.603Z,101099.98
2019-04-01T12:02:41.388Z,101101.03
2019-04-01T12:05:10.128Z,101085.23
2019-04-01T12:07:38.723Z,101075.72
2019-04-01T12:10:07.980Z,101079.61
2019-04-01T12:12:36.806Z,101068.63
2019-04-01T12:15:06.833Z,101068.63
2019-04-01T12:17:35.894Z,101074.91
2019-04-01T12:20:06.034Z,101070.82
2019-04-01T12:22:34.613Z,101069.14
2019-04-01T12:25:03.195Z,101067.41
2019-04-01T12:27:31.769Z,101068.42
2019-04-01T12:30:00.442Z,101062.45
2019-04-01T12:32:28.962Z,101058.22
2019-04-01T12:34:57.554Z,101052.42
2019-04-01T12:37:29.911Z,101046.30
2019-04-01T12:39:56.568Z,101043.95
2019-04-01T12:42:25.306Z,101040.58
2019-04-01T12:44:54.039Z,101032.41
2019-04-01T12:47:22.689Z,101032.40
2019-04-01T12:49:51.292Z,101022.39
2019-04-01T12:52:19.869Z,101012.16
2019-04-01T12:54:48.478Z,101006.19
2019-04-01T12:57:18.899Z,101008.90
2019-04-01T12:59:47.406Z,101000.78
2019-04-01T13:02:18.117Z,100992.13
2019-04-01T13:04:49.429Z,100996.70
2019-04-01T13:07:16.649Z,100983.42
2019-04-01T13:09:45.470Z,100986.31
2019-04-01T13:12:14.020Z,100985.13
2019-04-01T13:14:43.442Z,100981.23
2019-04-01T13:17:12.231Z,100969.49
2019-04-01T13:19:40.839Z,100972.03
2019-04-01T13:22:09.498Z,100953.36
2019-04-01T13:24:38.122Z,100960.48
2019-04-01T13:27:09.107Z,100954.36
2019-04-01T13:29:37.103Z,100943.16
2019-04-01T13:32:09.988Z,100936.55
2019-04-01T13:34:38.753Z,100933.62
2019-04-01T13:37:08.077Z,100933.80
2019-04-01T13:39:37.762Z,100922.95
2019-04-01T13:42:06.449Z,100921.59
2019-04-01T13:44:37.668Z,100918.20
2019-04-01T13:47:07.026Z,100918.88
2019-04-01T13:49:41.456Z,100904.94
2019-04-01T13:52:10.251Z,100906.13
2019-04-01T13:54:39.230Z,100911.55
2019-04-01T13:57:08.588Z,100905.54
2019-04-01T13:59:48.612Z,100890.92
2019-04-01T14:02:07.998Z,100895.31
2019-04-01T14:04:37.104Z,100887.09
2019-04-01T14:07:08.125Z,100889.58
2019-04-01T14:09:36.786Z,100872.73
2019-04-01T14:12:05.846Z,100881.34
2019-04-01T14:14:34.454Z,100877.66
2019-04-01T14:17:03.680Z,100875.13
2019-04-01T14:19:32.823Z,100874.39
2019-04-01T14:22:03.095Z,100872.61
2019-04-01T14:24:33.156Z,100875.89
2019-04-01T14:27:01.767Z,100860.18
2019-04-01T14:29:30.350Z,100852.88
2019-04-01T14:31:59.456Z,100856.03
2019-04-01T14:34:28.344Z,100853.54
2019-04-01T14:36:56.994Z,100853.14
2019-04-01T14:39:25.652Z,100842.12
2019-04-01T14:41:54.288Z,100840.66
2019-04-01T14:44:22.879Z,100836.17
2019-04-01T14:46:51.994Z,100843.03
2019-04-01T14:49:20.572Z,100835.09
2019-04-01T14:51:49.522Z,100831.58
2019-04-01T14:54:20.630Z,100821.10
2019-04-01T14:56:48.485Z,100823.15
2019-04-01T14:59:17.053Z,100822.16
2019-04-01T15:01:46.252Z,100809.48
2019-04-01T15:04:14.831Z,100804.28
2019-04-01T15:06:45.061Z,100801.53
2019-04-01T15:09:13.800Z,100802.80
2019-04-01T15:11:42.451Z,100792.42
2019-04-01T15:14:11.043Z,100789.84
2019-04-01T15:16:39.638Z,100790.50
2019-04-01T15:19:08.230Z,100786.89
2019-04-01T15:21:37.687Z,100782.48
2019-04-01T15:24:06.336Z,100779.29
2019-04-01T15:26:35.430Z,100779.66
2019-04-01T15:29:04.240Z,100776.44
2019-04-01T15:31:32.828Z,100769.85
2019-04-01T15:34:01.630Z,100759.34
2019-04-01T15:36:30.316Z,100762.53
2019-04-01T15:38:58.913Z,100763.39
2019-04-01T15:41:27.667Z,100747.98
2019-04-01T15:43:56.249Z,100757.58
2019-04-01T15:46:25.040Z,100743.23
2019-04-01T15:48:53.719Z,100748.05
2019-04-01T15:51:22.327Z,100740.25
2019-04-01T15:53:50.922Z,100737.22
2019-04-01T15:56:19.530Z,100733.67
2019-04-01T15:58:50.767Z,100730.48
2019-04-01T16:01:18.439Z,100726.06
2019-04-01T16:03:47.020Z,100725.09
2019-04-01T16:06:15.652Z,100721.05
2019-04-01T16:08:44.281Z,100716.92
2019-04-01T16:11:12.940Z,100711.80
2019-04-01T16:13:42.312Z,100709.39
2019-04-01T16:16:14.472Z,100706.16
2019-04-01T16:18:42.176Z,100709.62
2019-04-01T16:21:11.327Z,100701.12
2019-04-01T16:23:39.954Z,100707.98
2019-04-01T16:26:09.691Z,100699.35
2019-04-01T16:28:38.603Z,100703.02
2019-04-01T16:31:07.177Z,100692.89
2019-04-01T16:33:35.762Z,100692.69
2019-04-01T16:36:04.541Z,100691.83
2019-04-01T16:38:33.123Z,100694.64
2019-04-01T16:41:01.709Z,100689.91
2019-04-01T16:43:30.408Z,100685.65
2019-04-01T16:45:59.087Z,100687.77
2019-04-01T16:48:27.947Z,100680.81
2019-04-01T16:50:56.515Z,100679.41
2019-04-01T16:53:25.230Z,100676.02
2019-04-01T16:55:53.928Z,100680.34
2019-04-01T16:58:22.507Z,100685.15
2019-04-01T17:00:51.096Z,100683.59
2019-04-01T17:03:20.437Z,100675.41
2019-04-01T17:05:49.193Z,100669.11
2019-04-01T17:08:17.818Z,100678.45
2019-04-01T17:10:48.078Z,100668.97
2019-04-01T17:13:16.668Z,100673.77
2019-04-01T17:15:45.309Z,100667.59
2019-04-01T17:18:14.080Z,100668.17
2019-04-01T17:20:42.684Z,100661.73
2019-04-01T17:23:11.257Z,100663.75
2019-04-01T17:25:39.880Z,100663.25
2019-04-01T17:28:08.462Z,100664.42
2019-04-01T17:30:37.226Z,100657.37
2019-04-01T17:33:08.406Z,100661.09
2019-04-01T17:35:36.778Z,100667.05
2019-04-01T17:38:06.312Z,100663.32
2019-04-01T17:40:35.623Z,100656.42
2019-04-01T17:43:04.500Z,100654.89
2019-04-01T17:45:36.457Z,100655.54
2019-04-01T17:48:06.056Z,100646.66
2019-04-01T17:50:35.622Z,100646.66
2019-04-01T17:53:05.979Z,100653.07
2019-04-01T17:55:34.565Z,100655.19
2019-04-01T17:58:03.174Z,100656.82
2019-04-01T18:00:33.430Z,100647.85
2019-04-01T18:03:02.144Z,100645.30
2019-04-01T18:05:30.716Z,100642.07
2019-04-01T18:07:59.368Z,100644.17
2019-04-01T18:10:28.606Z,100639.22
2019-04-01T18:12:57.895Z,100637.63
2019-04-01T18:15:26.471Z,100631.94
2019-04-01T18:17:55.222Z,100628.41
2019-04-01T18:20:24.177Z,100633.31
2019-04-01T18:22:52.788Z,100626.23
2019-04-01T18:25:21.545Z,100627.96
2019-04-01T18:27:50.063Z,100631.03
2019-04-01T18:30:19.144Z,100631.88
2019-04-01T18:32:51.315Z,100626.03
2019-04-01T18:35:18.025Z,100626.90
2019-04-01T18:37:46.795Z,100633.37
2019-04-01T18:40:15.485Z,100625.82
2019-04-01T18:42:44.111Z,100627.06
2019-04-01T18:45:12.891Z,100627.92
2019-04-01T18:47:41.544Z,100621.23
2019-04-01T18:50:10.417Z,100625.59
2019-04-01T18:52:39.004Z,100624.16
2019-04-01T18:55:08.147Z,100616.59
2019-04-01T18:57:36.850Z,100627.31
2019-04-01T19:00:08.678Z,100626.83
2019-04-01T19:02:37.258Z,100624.16
2019-04-01T19:05:06.139Z,100617.21
2019-04-01T19:07:35.752Z,100620.85
2019-04-01T19:10:08.132Z,100616.11
2019-04-01T19:12:36.737Z,100616.69
2019-04-01T19:15:09.952Z,100618.65
2019-04-01T19:17:38.046Z,100605.70
2019-04-01T19:20:08.861Z,100612.91
2019-04-01T19:22:37.457Z,100606.55
2019-04-01T19:25:08.909Z,100606.06
2019-04-01T19:27:37.540Z,100609.59
2019-04-01T19:30:08.032Z,100613.22
2019-04-01T19:32:38.144Z,100610.05
2019-04-01T19:35:09.464Z,100600.33
2019-04-01T19:37:38.314Z,100603.59
2019-04-01T19:40:08.656Z,100611.38
2019-04-01T19:42:39.494Z,100611.13
2019-04-01T19:45:09.304Z,100607.00
2019-04-01T19:47:37.905Z,100616.59
2019-04-01T19:50:08.477Z,100612.19
2019-04-01T19:52:37.685Z,100609.63
2019-04-01T19:55:07.060Z,100608.99
2019-04-01T19:57:35.748Z,100608.97
2019-04-01T20:00:06.831Z,100609.34
2019-04-01T20:02:35.928Z,100600.91
2019-04-01T20:05:06.923Z,100602.09
2019-04-01T20:07:35.533Z,100599.30
2019-04-01T20:10:05.641Z,100601.95
2019-04-01T20:12:34.233Z,100596.95
2019-04-01T20:15:02.996Z,100596.92
2019-04-01T20:17:31.596Z,100594.57
2019-04-01T20:20:00.321Z,100592.63
2019-04-01T20:22:30.102Z,100594.92
2019-04-01T20:24:58.672Z,100588.94
2019-04-01T20:27:27.271Z,100589.64
2019-04-01T20:29:55.924Z,100591.81
2019-04-01T20:32:24.529Z,100579.39
2019-04-01T20:34:57.204Z,100577.42
2019-04-01T20:37:23.473Z,100577.27
2019-04-01T20:39:52.140Z,100578.47
2019-04-01T20:42:20.815Z,100574.30
2019-04-01T20:44:49.392Z,100572.36
2019-04-01T20:47:17.971Z,100564.66
2019-04-01T20:49:46.851Z,100571.20
2019-04-01T20:52:15.545Z,100566.17
2019-04-01T20:54:45.024Z,100561.91
2019-04-01T20:57:14.182Z,100566.27
2019-04-01T20:59:43.053Z,100559.33
2019-04-01T21:02:11.789Z,100556.02
2019-04-01T21:04:40.619Z,100554.64
2019-04-01T21:07:10.016Z,100554.09
2019-04-01T21:09:38.770Z,100551.50
2019-04-01T21:12:08.426Z,100548.14
2019-04-01T21:14:37.343Z,100546.89
2019-04-01T21:17:05.955Z,100536.16
2019-04-01T21:19:34.566Z,100543.73
2019-04-01T21:22:03.238Z,100540.89
2019-04-01T21:24:31.747Z,100538.30
2019-04-01T21:27:00.443Z,100540.80
2019-04-01T21:29:29.052Z,100536.65
2019-04-01T21:31:57.665Z,100531.91
2019-04-01T21:34:26.786Z,100533.24
2019-04-01T21:36:55.531Z,100531.91
2019-04-01T21:39:24.114Z,100528.98
2019-04-01T21:41:53.136Z,100527.73
2019-04-01T21:44:22.542Z,100520.41
2019-04-01T21:46:51.466Z,100520.62
2019-04-01T21:49:20.085Z,100524.75
2019-04-01T21:51:48.669Z,100514.29
2019-04-01T21:54:17.494Z,100510.41
2019-04-01T21:56:46.127Z,100510.41
2019-04-01T21:59:14.709Z,100504.21
2019-04-01T22:01:43.288Z,100499.48
2019-04-01T22:04:11.867Z,100490.34
2019-04-01T22:06:41.123Z,100490.56
2019-04-01T22:09:10.832Z,100483.16
2019-04-01T22:11:39.443Z,100490.86
2019-04-01T22:14:08.042Z,100484.31
2019-04-01T22:16:36.618Z,100476.91
2019-04-01T22:19:05.480Z,100478.33
2019-04-01T22:21:34.671Z,100475.05
2019-04-01T22:24:04.255Z,100475.61
2019-04-01T22:26:33.132Z,100472.59
2019-04-01T22:29:01.827Z,100462.39
2019-04-01T22:31:30.569Z,100461.53
2019-04-01T22:33:59.185Z,100464.20
2019-04-01T22:36:31.177Z,100461.15
2019-04-01T22:38:58.257Z,100458.81
2019-04-01T22:41:28.140Z,100455.02
2019-04-01T22:43:57.434Z,100446.87
2019-04-01T22:46:26.369Z,100446.61
2019-04-01T22:48:55.067Z,100445.10
2019-04-01T22:51:23.698Z,100444.84
2019-04-01T22:53:52.317Z,100444.57
2019-04-01T22:56:21.004Z,100435.84
2019-04-01T22:58:50.305Z,100438.70
2019-04-01T23:01:20.018Z,100435.66
2019-04-01T23:03:48.685Z,100439.86
2019-04-01T23:06:17.266Z,100431.52
2019-04-01T23:08:46.212Z,100432.55
2019-04-01T23:11:15.130Z,100430.95
2019-04-01T23:13:43.652Z,100425.83
2019-04-01T23:16:13.093Z,100426.13
2019-04-01T23:18:41.713Z,100428.40
2019-04-01T23:21:10.480Z,100430.59
2019-04-01T23:23:39.132Z,100425.73
2019-04-01T23:26:07.785Z,100425.35
2019-04-01T23:28:36.756Z,100420.14
2019-04-01T23:31:05.346Z,100410.64
2019-04-01T23:33:33.929Z,100408.17
2019-04-01T23:36:02.518Z,100407.91
2019-04-01T23:38:31.094Z,100410.10
2019-04-01T23:41:01.081Z,100406.58
2019-04-01T23:43:29.763Z,100406.22
2019-04-01T23:45:58.608Z,100396.13
2019-04-01T23:48:27.188Z,100393.84
2019-04-01T23:50:55.769Z,100389.00
2019-04-01T23:53:24.428Z,100384.05
2019-04-01T23:55:53.029Z,100383.67
2019-04-01T23:58:22.486Z,100377.22
